createdAt,value
2019-01-28T00:00:34.471Z,64.4
2019-01-28T00:01:24.829Z,64.4
2019-01-28T00:02:14.848Z,64.4
2019-01-28T00:03:04.361Z,64.4
2019-01-28T00:03:55.038Z,64.4
2019-01-28T00:04:44.788Z,64.4
2019-01-28T00:05:34.593Z,64.4
2019-01-28T00:06:25.151Z,64.4
2019-01-28T00:07:15.211Z,64.3
2019-01-28T00:08:04.751Z,64.3
2019-01-28T00:08:55.728Z,64.3
2019-01-28T00:09:45.439Z,64.3
2019-01-28T00:10:35.431Z,64.3
2019-01-28T00:11:25.761Z,64.3
2019-01-28T00:12:17.158Z,64.3
2019-01-28T00:13:05.315Z,64.3
2019-01-28T00:13:55.948Z,64.2
2019-01-28T00:14:46.010Z,64.2
2019-01-28T00:15:35.273Z,64.2
2019-01-28T00:16:25.543Z,64.2
2019-01-28T00:17:15.893Z,64.2
2019-01-28T00:18:06.032Z,64.1
2019-01-28T00:18:56.287Z,64.1
2019-01-28T00:19:46.073Z,64.1
2019-01-28T00:20:36.165Z,64.1
2019-01-28T00:21:26.167Z,64.1
2019-01-28T00:22:16.510Z,64.1
2019-01-28T00:23:06.340Z,64.1
2019-01-28T00:23:56.070Z,64.1
2019-01-28T00:24:45.845Z,64
2019-01-28T00:25:35.654Z,64
2019-01-28T00:26:26.235Z,64
2019-01-28T00:27:16.582Z,64
2019-01-28T00:28:06.085Z,63.9
2019-01-28T00:28:56.692Z,63.9
2019-01-28T00:29:47.064Z,63.9
2019-01-28T00:30:36.517Z,63.9
2019-01-28T00:31:26.586Z,63.9
2019-01-28T00:32:16.907Z,63.9
2019-01-28T00:33:06.722Z,63.9
2019-01-28T00:33:56.211Z,63.9
2019-01-28T00:34:47.079Z,63.8
2019-01-28T00:35:36.890Z,63.8
2019-01-28T00:36:26.962Z,63.8
2019-01-28T00:37:17.541Z,63.8
2019-01-28T00:38:07.607Z,63.8
2019-01-28T00:38:57.654Z,63.8
2019-01-28T00:39:46.874Z,63.8
2019-01-28T00:40:36.936Z,63.8
2019-01-28T00:41:27.266Z,63.7
2019-01-28T00:42:17.332Z,63.7
2019-01-28T00:43:07.378Z,63.7
2019-01-28T00:43:57.816Z,63.7
2019-01-28T00:44:47.764Z,63.6
2019-01-28T00:45:38.104Z,63.6
2019-01-28T00:46:27.904Z,63.6
2019-01-28T00:47:17.936Z,63.6
2019-01-28T00:48:07.732Z,63.6
2019-01-28T00:48:58.331Z,63.6
2019-01-28T00:49:47.894Z,63.6
2019-01-28T00:50:38.451Z,63.5
2019-01-28T00:51:28.211Z,63.5
2019-01-28T00:52:18.290Z,63.5
2019-01-28T00:53:08.435Z,63.5
2019-01-28T00:53:58.413Z,63.5
2019-01-28T00:54:48.458Z,63.4
2019-01-28T00:55:38.785Z,63.4
2019-01-28T00:56:28.573Z,63.4
2019-01-28T00:57:18.432Z,63.4
2019-01-28T00:58:08.683Z,63.4
2019-01-28T00:58:59.031Z,63.4
2019-01-28T00:59:48.830Z,63.4
2019-01-28T01:00:39.118Z,63.3
2019-01-28T01:01:28.433Z,63.3
2019-01-28T01:02:18.973Z,63.3
2019-01-28T01:03:08.272Z,63.3
2019-01-28T01:03:58.614Z,63.3
2019-01-28T01:04:48.968Z,63.3
2019-01-28T01:05:38.641Z,63.3
2019-01-28T01:06:28.500Z,63.2
2019-01-28T01:07:18.852Z,63.2
2019-01-28T01:08:09.172Z,63.2
2019-01-28T01:08:58.946Z,63.2
2019-01-28T01:09:49.077Z,63.2
2019-01-28T01:10:38.790Z,63.1
2019-01-28T01:11:29.116Z,63.1
2019-01-28T01:12:19.447Z,63.1
2019-01-28T01:13:09.504Z,63.1
2019-01-28T01:13:59.611Z,63.1
2019-01-28T01:14:48.787Z,63.1
2019-01-28T01:15:39.155Z,63.1
2019-01-28T01:16:29.737Z,63.1
2019-01-28T01:17:19.249Z,63
2019-01-28T01:18:09.339Z,63
2019-01-28T01:19:00.121Z,63
2019-01-28T01:19:50.172Z,62.9
2019-01-28T01:20:39.695Z,62.9
2019-01-28T01:21:30.274Z,62.9
2019-01-28T01:22:20.169Z,62.9
2019-01-28T01:23:10.402Z,62.9
2019-01-28T01:24:00.443Z,62.9
2019-01-28T01:24:50.254Z,62.9
2019-01-28T01:25:39.807Z,62.9
2019-01-28T01:26:30.346Z,62.8
2019-01-28T01:27:20.968Z,62.8
2019-01-28T01:28:10.736Z,62.8
2019-01-28T01:29:01.058Z,62.8
2019-01-28T01:29:50.293Z,62.8
2019-01-28T01:30:40.636Z,62.8
2019-01-28T01:31:31.236Z,62.8
2019-01-28T01:32:20.758Z,62.7
2019-01-28T01:33:11.396Z,62.7
2019-01-28T01:34:00.883Z,62.7
2019-01-28T01:34:50.925Z,62.7
2019-01-28T01:35:40.697Z,62.6
2019-01-28T01:36:31.300Z,62.6
2019-01-28T01:37:21.356Z,62.6
2019-01-28T01:38:11.415Z,62.6
2019-01-28T01:39:01.005Z,62.6
2019-01-28T01:39:51.328Z,62.6
2019-01-28T01:40:41.330Z,62.6
2019-01-28T01:41:30.930Z,62.5
2019-01-28T01:42:20.940Z,62.5
2019-01-28T01:43:11.292Z,62.5
2019-01-28T01:44:01.568Z,62.5
2019-01-28T01:44:52.150Z,62.4
2019-01-28T01:45:41.655Z,62.4
2019-01-28T01:46:31.990Z,62.4
2019-01-28T01:47:22.102Z,62.4
2019-01-28T01:48:11.645Z,62.4
2019-01-28T01:49:02.155Z,62.4
2019-01-28T01:49:52.502Z,62.4
2019-01-28T01:50:42.287Z,62.3
2019-01-28T01:51:32.400Z,62.3
2019-01-28T01:52:22.142Z,62.3
2019-01-28T01:53:12.174Z,62.3
2019-01-28T01:54:02.827Z,62.3
2019-01-28T01:54:52.627Z,62.3
2019-01-28T01:55:42.346Z,62.3
2019-01-28T01:56:32.741Z,62.2
2019-01-28T01:57:22.796Z,62.2
2019-01-28T01:58:14.677Z,62.2
2019-01-28T01:59:02.581Z,62.2
2019-01-28T01:59:52.426Z,62.1
2019-01-28T02:00:42.966Z,62.1
2019-01-28T02:01:32.759Z,62.1
2019-01-28T02:02:23.356Z,62.1
2019-01-28T02:03:12.879Z,62.1
2019-01-28T02:04:03.208Z,62.1
2019-01-28T02:04:53.261Z,62.1
2019-01-28T02:05:43.033Z,62.1
2019-01-28T02:06:33.631Z,62
2019-01-28T02:07:23.403Z,62
2019-01-28T02:08:13.473Z,62
2019-01-28T02:09:03.860Z,62
2019-01-28T02:09:53.041Z,61.9
2019-01-28T02:10:43.650Z,61.9
2019-01-28T02:11:33.426Z,61.9
2019-01-28T02:12:23.826Z,61.9
2019-01-28T02:13:14.090Z,61.9
2019-01-28T02:14:03.590Z,61.9
2019-01-28T02:14:53.985Z,61.8
2019-01-28T02:15:42.967Z,61.8
2019-01-28T02:16:33.778Z,61.8
2019-01-28T02:17:23.823Z,61.8
2019-01-28T02:18:14.153Z,61.8
2019-01-28T02:19:04.230Z,61.8
2019-01-28T02:19:53.997Z,61.8
2019-01-28T02:20:44.342Z,61.8
2019-01-28T02:21:33.821Z,61.8
2019-01-28T02:22:24.717Z,61.7
2019-01-28T02:23:14.778Z,61.7
2019-01-28T02:24:04.832Z,61.7
2019-01-28T02:24:54.888Z,61.6
2019-01-28T02:25:44.401Z,61.6
2019-01-28T02:26:34.731Z,61.6
2019-01-28T02:27:24.782Z,61.6
2019-01-28T02:28:14.899Z,61.6
2019-01-28T02:29:04.622Z,61.6
2019-01-28T02:29:55.243Z,61.6
2019-01-28T02:30:45.012Z,61.5
2019-01-28T02:31:35.375Z,61.5
2019-01-28T02:32:25.554Z,61.5
2019-01-28T02:33:15.176Z,61.5
2019-01-28T02:34:04.988Z,61.5
2019-01-28T02:34:55.634Z,61.4
2019-01-28T02:35:45.084Z,61.4
2019-01-28T02:36:35.414Z,61.4
2019-01-28T02:37:25.851Z,61.4
2019-01-28T02:38:15.844Z,61.4
2019-01-28T02:39:05.364Z,61.4
2019-01-28T02:39:55.656Z,61.4
2019-01-28T02:40:45.758Z,61.3
2019-01-28T02:41:35.784Z,61.3
2019-01-28T02:42:25.529Z,61.3
2019-01-28T02:43:15.887Z,61.3
2019-01-28T02:44:05.958Z,61.3
2019-01-28T02:44:56.067Z,61.3
2019-01-28T02:45:46.371Z,61.3
2019-01-28T02:46:35.606Z,61.2
2019-01-28T02:47:25.903Z,61.2
2019-01-28T02:48:15.983Z,61.2
2019-01-28T02:49:06.006Z,61.2
2019-01-28T02:49:56.641Z,61.2
2019-01-28T02:50:45.860Z,61.1
2019-01-28T02:51:36.233Z,61.1
2019-01-28T02:52:26.503Z,61.1
2019-01-28T02:53:16.586Z,61
2019-01-28T02:54:06.076Z,60.8
2019-01-28T02:54:56.388Z,60.6
2019-01-28T02:55:46.563Z,60.4
2019-01-28T02:56:36.802Z,60.3
2019-01-28T02:57:26.590Z,60.3
2019-01-28T02:58:16.633Z,60.3
2019-01-28T02:59:06.978Z,60.3
2019-01-28T02:59:57.043Z,60.3
2019-01-28T03:00:46.867Z,60.3
2019-01-28T03:01:36.597Z,60.4
2019-01-28T03:02:26.927Z,60.6
2019-01-28T03:03:17.243Z,60.8
2019-01-28T03:04:07.106Z,60.9
2019-01-28T03:04:57.676Z,61.1
2019-01-28T03:08:29.880Z,61.9
2019-01-28T03:09:20.363Z,62
2019-01-28T03:10:10.545Z,62.2
2019-01-28T03:11:00.567Z,62.4
2019-01-28T03:11:50.122Z,62.6
2019-01-28T03:12:39.869Z,62.8
2019-01-28T03:13:30.504Z,63
2019-01-28T03:14:20.524Z,63.3
2019-01-28T03:15:10.574Z,63.4
2019-01-28T03:16:00.913Z,63.6
2019-01-28T03:16:50.998Z,63.7
2019-01-28T03:17:40.811Z,63.8
2019-01-28T03:18:31.109Z,64
2019-01-28T03:19:21.144Z,64.1
2019-01-28T03:20:10.699Z,64.2
2019-01-28T03:21:01.327Z,64.2
2019-01-28T03:21:51.051Z,64.4
2019-01-28T03:22:41.389Z,64.5
2019-01-28T03:23:31.418Z,64.6
2019-01-28T03:24:21.221Z,64.8
2019-01-28T03:25:11.256Z,64.8
2019-01-28T03:26:01.337Z,64.9
2019-01-28T03:26:51.397Z,65
2019-01-28T03:27:43.820Z,65.1
2019-01-28T03:28:31.764Z,65.3
2019-01-28T03:29:21.879Z,65.3
2019-01-28T03:30:11.660Z,65.3
2019-01-28T03:31:02.127Z,65.4
2019-01-28T03:31:51.552Z,65.5
2019-01-28T03:32:41.907Z,65.6
2019-01-28T03:33:31.907Z,65.6
2019-01-28T03:34:21.608Z,65.7
2019-01-28T03:35:12.213Z,65.8
2019-01-28T03:36:02.013Z,65.8
2019-01-28T03:36:52.324Z,65.8
2019-01-28T03:37:42.123Z,65.9
2019-01-28T03:38:31.895Z,66
2019-01-28T03:39:21.996Z,66.1
2019-01-28T03:40:12.568Z,66.1
2019-01-28T03:41:02.677Z,66.1
2019-01-28T03:41:52.670Z,66.1
2019-01-28T03:42:42.755Z,66.3
2019-01-28T03:43:32.819Z,66.3
2019-01-28T03:44:22.570Z,66.3
2019-01-28T03:45:12.625Z,66.3
2019-01-28T03:46:02.960Z,66.3
2019-01-28T03:46:52.768Z,66.3
2019-01-28T03:47:42.572Z,66.4
2019-01-28T03:48:33.114Z,66.4
2019-01-28T03:49:22.343Z,66.4
2019-01-28T03:50:13.297Z,66.4
2019-01-28T03:51:03.351Z,66.4
2019-01-28T03:51:53.389Z,66.4
2019-01-28T03:52:43.177Z,66.4
2019-01-28T03:53:33.204Z,66.4
2019-01-28T03:54:23.513Z,66.4
2019-01-28T03:55:13.335Z,66.4
2019-01-28T03:56:03.620Z,66.3
2019-01-28T03:56:53.684Z,66.3
2019-01-28T03:57:43.777Z,66.3
2019-01-28T03:58:33.814Z,66.3
2019-01-28T03:59:23.861Z,66.3
2019-01-28T04:00:13.909Z,66.3
2019-01-28T04:01:03.437Z,66.3
2019-01-28T04:01:54.038Z,66.3
2019-01-28T04:02:44.138Z,66.3
2019-01-28T04:03:33.911Z,66.3
2019-01-28T04:04:23.649Z,66.3
2019-01-28T04:05:14.358Z,66.3
2019-01-28T04:06:04.031Z,66.3
2019-01-28T04:06:54.106Z,66.2
2019-01-28T04:07:43.871Z,66.3
2019-01-28T04:08:34.201Z,66.2
2019-01-28T04:09:24.251Z,66.2
2019-01-28T04:10:14.346Z,66.2
2019-01-28T04:11:04.403Z,66.2
2019-01-28T04:11:54.723Z,66.2
2019-01-28T04:12:44.759Z,66.2
2019-01-28T04:13:34.869Z,66.2
2019-01-28T04:14:24.605Z,66.1
2019-01-28T04:15:14.665Z,66.1
2019-01-28T04:16:04.590Z,66.1
2019-01-28T04:16:54.813Z,66.1
2019-01-28T04:17:44.827Z,66.1
2019-01-28T04:18:34.917Z,66.1
2019-01-28T04:19:24.953Z,66.1
2019-01-28T04:20:15.048Z,66.1
2019-01-28T04:21:05.327Z,66.1
2019-01-28T04:21:54.882Z,66.1
2019-01-28T04:22:44.913Z,66.1
2019-01-28T04:23:35.485Z,66.1
2019-01-28T04:24:25.005Z,66
2019-01-28T04:26:05.668Z,66
2019-01-28T04:26:55.710Z,66
2019-01-28T04:27:45.254Z,66
2019-01-28T04:28:35.283Z,65.9
2019-01-28T04:29:25.912Z,65.9
2019-01-28T04:30:15.743Z,65.9
2019-01-28T04:31:06.017Z,65.9
2019-01-28T04:31:55.793Z,65.9
2019-01-28T04:32:45.889Z,65.9
2019-01-28T04:33:36.160Z,65.9
2019-01-28T04:34:25.993Z,65.9
2019-01-28T04:35:16.422Z,65.9
2019-01-28T04:36:06.171Z,65.9
2019-01-28T04:36:55.597Z,65.9
2019-01-28T04:37:46.218Z,65.9
2019-01-28T04:38:36.374Z,65.9
2019-01-28T04:39:26.586Z,65.9
2019-01-28T04:40:16.645Z,65.8
2019-01-28T04:41:06.692Z,65.8
2019-01-28T04:41:56.779Z,65.8
2019-01-28T04:42:46.569Z,65.8
2019-01-28T04:43:36.576Z,65.8
2019-01-28T04:44:26.991Z,65.8
2019-01-28T04:45:17.164Z,65.8
2019-01-28T04:46:07.098Z,65.8
2019-01-28T04:46:56.824Z,65.8
2019-01-28T04:47:47.021Z,65.8
2019-01-28T04:48:37.000Z,65.8
2019-01-28T04:49:27.338Z,65.8
2019-01-28T04:50:17.316Z,65.7
2019-01-28T04:51:07.109Z,65.7
2019-01-28T04:51:57.433Z,65.7
2019-01-28T04:52:47.472Z,65.7
2019-01-28T04:53:37.518Z,65.7
2019-01-28T04:54:27.346Z,65.7
2019-01-28T04:55:17.376Z,65.7
2019-01-28T04:56:07.412Z,65.6
2019-01-28T04:56:57.504Z,65.6
2019-01-28T04:57:47.883Z,65.6
2019-01-28T04:58:37.681Z,65.6
2019-01-28T04:59:27.985Z,65.6
2019-01-28T05:00:18.279Z,65.6
2019-01-28T05:01:08.035Z,65.6
2019-01-28T05:01:58.105Z,65.6
2019-01-28T05:02:47.887Z,65.6
2019-01-28T05:03:37.947Z,65.6
2019-01-28T05:04:28.025Z,65.6
2019-01-28T05:05:18.092Z,65.6
2019-01-28T05:06:08.108Z,65.6
2019-01-28T05:06:57.617Z,65.6
2019-01-28T05:07:48.610Z,65.5
2019-01-28T05:08:38.290Z,65.5
2019-01-28T05:09:28.190Z,65.5
2019-01-28T05:10:18.091Z,65.5
2019-01-28T05:11:07.952Z,65.5
2019-01-28T05:11:58.354Z,65.5
2019-01-28T05:12:48.365Z,65.4
2019-01-28T05:13:38.136Z,65.4
2019-01-28T05:14:27.659Z,65.4
2019-01-28T05:15:18.594Z,65.4
2019-01-28T05:16:08.576Z,65.4
2019-01-28T05:16:58.380Z,65.4
2019-01-28T05:17:48.176Z,65.4
2019-01-28T05:18:38.747Z,65.4
2019-01-28T05:19:30.618Z,65.4
2019-01-28T05:20:18.914Z,65.4
2019-01-28T05:21:09.401Z,65.4
2019-01-28T05:21:59.004Z,65.4
2019-01-28T05:22:48.018Z,65.4
2019-01-28T05:23:39.559Z,65.4
2019-01-28T05:24:29.639Z,65.3
2019-01-28T05:25:18.980Z,65.3
2019-01-28T05:26:09.749Z,65.3
2019-01-28T05:26:59.061Z,65.3
2019-01-28T05:27:49.414Z,65.3
2019-01-28T05:28:39.146Z,65.3
2019-01-28T05:29:28.928Z,65.3
2019-01-28T05:30:19.036Z,65.3
2019-01-28T05:31:09.311Z,65.3
2019-01-28T05:31:59.696Z,65.3
2019-01-28T05:32:49.695Z,65.3
2019-01-28T05:33:39.770Z,65.3
2019-01-28T05:34:29.820Z,65.3
2019-01-28T05:35:19.923Z,65.3
2019-01-28T05:36:09.852Z,65.2
2019-01-28T05:37:00.482Z,65.2
2019-01-28T05:37:50.550Z,65.2
2019-01-28T05:38:40.058Z,65.2
2019-01-28T05:39:30.643Z,65.2
2019-01-28T05:40:20.158Z,65.1
2019-01-28T05:41:10.475Z,65.1
2019-01-28T05:42:00.560Z,65.1
2019-01-28T05:42:50.625Z,65.1
2019-01-28T05:43:40.353Z,65.1
2019-01-28T05:44:30.424Z,65.1
2019-01-28T05:45:20.755Z,65.1
2019-01-28T05:46:10.808Z,65.1
2019-01-28T05:47:00.910Z,65.1
2019-01-28T05:47:51.233Z,65.1
2019-01-28T05:48:40.991Z,65.1
2019-01-28T05:49:31.052Z,65.1
2019-01-28T05:50:21.100Z,65
2019-01-28T05:51:11.147Z,65.1
2019-01-28T05:52:01.227Z,65
2019-01-28T05:52:51.554Z,65
2019-01-28T05:53:41.312Z,65
2019-01-28T05:54:31.662Z,64.9
2019-01-28T05:55:21.446Z,65
2019-01-28T05:56:11.212Z,64.9
2019-01-28T05:57:01.857Z,64.9
2019-01-28T05:57:51.932Z,64.9
2019-01-28T05:58:41.667Z,64.9
2019-01-28T05:59:31.499Z,64.9
2019-01-28T06:00:21.505Z,64.9
2019-01-28T06:01:11.824Z,64.9
2019-01-28T06:02:02.157Z,64.9
2019-01-28T06:02:52.017Z,64.9
2019-01-28T06:03:42.300Z,64.9
2019-01-28T06:04:32.074Z,64.8
2019-01-28T06:06:29.151Z,64.8
2019-01-28T06:07:20.226Z,64.8
2019-01-28T06:08:10.566Z,64.8
2019-01-28T06:09:01.504Z,64.8
2019-01-28T06:09:50.199Z,64.8
2019-01-28T06:10:54.793Z,64.8
2019-01-28T06:11:30.251Z,64.8
2019-01-28T06:12:25.814Z,64.8
2019-01-28T06:13:16.038Z,64.8
2019-01-28T06:14:05.378Z,64.8
2019-01-28T06:14:55.728Z,64.8
2019-01-28T06:15:46.070Z,64.8
2019-01-28T06:16:35.513Z,64.8
2019-01-28T06:17:26.191Z,64.7
2019-01-28T06:18:16.370Z,64.7
2019-01-28T06:19:20.625Z,64.7
2019-01-28T06:19:56.725Z,64.6
2019-01-28T06:20:46.307Z,64.6
2019-01-28T06:21:35.582Z,64.6
2019-01-28T06:23:15.550Z,64.6
2019-01-28T06:24:06.332Z,64.6
2019-01-28T06:24:56.065Z,64.6
2019-01-28T06:25:46.371Z,64.6
2019-01-28T06:26:36.733Z,64.6
2019-01-28T06:27:26.670Z,64.6
2019-01-28T06:28:16.695Z,64.6
2019-01-28T06:29:07.140Z,64.6
2019-01-28T06:29:55.572Z,64.6
2019-01-28T06:30:46.238Z,64.6
2019-01-28T06:31:36.794Z,64.5
2019-01-28T06:32:41.815Z,64.5
2019-01-28T06:33:16.378Z,64.5
2019-01-28T06:34:07.737Z,64.5
2019-01-28T07:06:29.929Z,64.1
2019-01-28T07:07:20.321Z,64.1
2019-01-28T07:08:10.336Z,64.1
2019-01-28T07:09:00.376Z,64.1
2019-01-28T07:09:49.386Z,64
2019-01-28T07:10:40.198Z,64
2019-01-28T07:11:30.306Z,64
2019-01-28T07:12:20.586Z,64
2019-01-28T07:13:09.800Z,64
2019-01-28T07:14:00.422Z,64
2019-01-28T07:14:50.223Z,63.9
2019-01-28T07:15:40.830Z,63.9
2019-01-28T07:16:30.598Z,63.9
2019-01-28T07:17:20.966Z,63.9
2019-01-28T07:18:10.983Z,63.9
2019-01-28T07:19:01.033Z,63.9
2019-01-28T07:19:50.305Z,63.9
2019-01-28T07:20:41.147Z,63.9
2019-01-28T07:21:30.668Z,63.9
2019-01-28T07:22:21.035Z,63.9
2019-01-28T07:23:11.042Z,63.9
2019-01-28T07:24:01.407Z,63.9
2019-01-28T07:24:51.447Z,63.8
2019-01-28T07:25:41.525Z,63.8
2019-01-28T07:26:31.272Z,63.8
2019-01-28T07:27:21.387Z,63.8
2019-01-28T07:28:11.402Z,63.8
2019-01-28T07:29:01.255Z,63.8
2019-01-28T07:29:51.015Z,63.8
2019-01-28T07:30:41.822Z,63.8
2019-01-28T07:31:31.610Z,63.8
2019-01-28T07:32:21.954Z,63.8
2019-01-28T07:33:11.709Z,63.8
2019-01-28T07:34:01.502Z,63.7
2019-01-28T07:34:51.678Z,63.7
2019-01-28T07:35:42.177Z,63.7
2019-01-28T07:36:31.950Z,63.7
2019-01-28T07:37:21.722Z,63.6
2019-01-28T07:38:11.781Z,63.6
2019-01-28T07:39:03.196Z,63.6
2019-01-28T07:39:52.172Z,63.6
2019-01-28T07:40:41.684Z,63.6
2019-01-28T07:41:31.995Z,63.6
2019-01-28T07:42:22.331Z,63.6
2019-01-28T07:43:12.394Z,63.6
2019-01-28T07:44:01.894Z,63.6
2019-01-28T07:44:52.231Z,63.6
2019-01-28T07:45:49.304Z,63.6
2019-01-28T07:46:32.626Z,63.5
2019-01-28T07:47:22.379Z,63.5
2019-01-28T07:48:12.746Z,63.5
2019-01-28T07:49:02.777Z,63.5
2019-01-28T07:49:52.585Z,63.5
2019-01-28T07:50:42.423Z,63.5
2019-01-28T07:51:32.988Z,63.5
2019-01-28T07:52:23.298Z,63.4
2019-01-28T07:53:13.358Z,63.4
2019-01-28T07:54:02.586Z,63.4
2019-01-28T07:54:53.511Z,63.4
2019-01-28T07:55:43.520Z,63.4
2019-01-28T07:56:33.075Z,63.4
2019-01-28T07:57:23.638Z,63.4
2019-01-28T07:58:13.412Z,63.4
2019-01-28T07:59:03.469Z,63.4
2019-01-28T07:59:53.280Z,63.4
2019-01-28T08:00:43.586Z,63.3
2019-01-28T08:01:33.942Z,63.3
2019-01-28T08:02:23.418Z,63.3
2019-01-28T08:03:13.755Z,63.3
2019-01-28T08:04:04.095Z,63.3
2019-01-28T08:04:54.130Z,63.3
2019-01-28T08:05:44.262Z,63.3
2019-01-28T08:06:34.317Z,63.3
2019-01-28T08:07:23.750Z,63.3
2019-01-28T08:08:13.817Z,63.3
2019-01-28T08:09:04.407Z,63.3
2019-01-28T08:09:54.193Z,63.3
2019-01-28T08:10:44.307Z,63.2
2019-01-28T08:11:34.037Z,63.2
2019-01-28T08:12:24.629Z,63.2
2019-01-28T08:13:14.458Z,63.2
2019-01-28T08:14:04.522Z,63.2
2019-01-28T08:14:54.533Z,63.2
2019-01-28T08:15:44.603Z,63.1
2019-01-28T08:16:34.984Z,63.1
2019-01-28T08:17:24.989Z,63.1
2019-01-28T08:18:15.137Z,63.1
2019-01-28T08:19:04.819Z,63.1
2019-01-28T08:19:54.666Z,63.1
2019-01-28T08:20:45.205Z,63.1
2019-01-28T08:21:34.984Z,63.1
2019-01-28T08:22:24.774Z,63.1
2019-01-28T08:23:15.405Z,63
2019-01-28T08:24:05.501Z,63
2019-01-28T08:24:55.231Z,63
2019-01-28T08:25:45.541Z,63
2019-01-28T08:26:35.612Z,63
2019-01-28T08:27:25.083Z,63
2019-01-28T08:28:15.441Z,62.9
2019-01-28T08:29:05.256Z,62.9
2019-01-28T08:29:55.564Z,62.9
2019-01-28T08:30:45.613Z,62.9
2019-01-28T08:31:36.006Z,62.9
2019-01-28T08:32:25.991Z,62.9
2019-01-28T08:33:15.788Z,62.9
2019-01-28T08:34:05.568Z,62.9
2019-01-28T08:34:55.911Z,62.9
2019-01-28T08:35:46.221Z,62.9
2019-01-28T08:36:36.275Z,62.9
2019-01-28T08:37:25.583Z,62.8
2019-01-28T08:38:16.113Z,62.8
2019-01-28T08:39:06.173Z,62.8
2019-01-28T08:39:57.435Z,62.8
2019-01-28T08:40:46.570Z,62.8
2019-01-28T08:41:36.347Z,62.8
2019-01-28T08:42:25.843Z,62.8
2019-01-28T08:43:18.593Z,62.8
2019-01-28T08:44:06.508Z,62.8
2019-01-28T08:44:56.085Z,62.8
2019-01-28T08:45:48.600Z,62.7
2019-01-28T08:46:36.685Z,62.7
2019-01-28T08:47:26.530Z,62.7
2019-01-28T08:48:22.275Z,62.7
2019-01-28T08:49:06.385Z,62.7
2019-01-28T08:49:56.902Z,62.7
2019-01-28T08:50:46.765Z,62.6
2019-01-28T08:51:37.321Z,62.6
2019-01-28T08:52:26.871Z,62.6
2019-01-28T08:53:16.950Z,62.6
2019-01-28T08:54:06.698Z,62.6
2019-01-28T08:54:57.507Z,62.6
2019-01-28T08:55:46.822Z,62.6
2019-01-28T08:56:37.349Z,62.6
2019-01-28T08:57:26.647Z,62.6
2019-01-28T08:58:17.262Z,62.6
2019-01-28T08:59:07.311Z,62.6
2019-01-28T08:59:57.367Z,62.5
2019-01-28T09:00:47.431Z,62.5
2019-01-28T09:01:37.279Z,62.5
2019-01-28T09:02:27.264Z,62.5
2019-01-28T09:03:17.354Z,62.4
2019-01-28T09:04:07.652Z,62.4
2019-01-28T09:04:57.714Z,62.4
2019-01-28T09:05:47.771Z,62.4
2019-01-28T09:06:37.261Z,62.4
2019-01-28T09:07:27.614Z,62.4
2019-01-28T09:08:17.104Z,62.4
2019-01-28T09:09:07.998Z,62.4
2019-01-28T09:09:58.046Z,62.4
2019-01-28T09:10:47.276Z,62.4
2019-01-28T09:11:37.898Z,62.3
2019-01-28T09:12:28.248Z,62.3
2019-01-28T09:13:17.938Z,62.3
2019-01-28T09:14:07.973Z,62.3
2019-01-28T09:14:58.148Z,62.3
2019-01-28T09:15:47.963Z,62.3
2019-01-28T09:16:38.208Z,62.3
2019-01-28T09:17:28.280Z,62.3
2019-01-28T09:18:25.978Z,62.3
2019-01-28T09:19:08.878Z,62.3
2019-01-28T09:20:00.976Z,62.3
2019-01-28T09:20:48.991Z,62.2
2019-01-28T09:21:38.845Z,62.2
2019-01-28T09:22:28.897Z,62.2
2019-01-28T09:23:19.448Z,62.1
2019-01-28T09:24:09.012Z,62.1
2019-01-28T09:24:58.503Z,62.1
2019-01-28T09:25:49.603Z,62.1
2019-01-28T09:26:38.625Z,62.1
2019-01-28T09:27:28.738Z,62.1
2019-01-28T09:28:19.002Z,62.1
2019-01-28T09:29:08.790Z,62.1
2019-01-28T09:29:59.602Z,62.1
2019-01-28T09:30:51.081Z,62.1
2019-01-28T09:31:38.692Z,62.1
2019-01-28T09:32:29.587Z,62
2019-01-28T09:33:19.665Z,62
2019-01-28T09:34:10.212Z,62
2019-01-28T09:34:59.738Z,62
2019-01-28T09:35:50.283Z,62
2019-01-28T09:36:39.573Z,62
2019-01-28T09:37:29.909Z,61.9
2019-01-28T09:38:19.423Z,61.9
2019-01-28T09:39:09.752Z,61.9
2019-01-28T09:40:00.171Z,61.9
2019-01-28T09:40:50.155Z,61.9
2019-01-28T09:41:39.976Z,61.9
2019-01-28T09:42:30.250Z,61.9
2019-01-28T09:43:20.025Z,61.9
2019-01-28T09:44:10.863Z,61.9
2019-01-28T09:45:00.287Z,61.9
2019-01-28T09:45:50.482Z,61.8
2019-01-28T09:46:41.007Z,61.8
2019-01-28T09:47:30.853Z,61.8
2019-01-28T09:48:20.380Z,61.8
2019-01-28T09:49:10.770Z,61.8
2019-01-28T09:50:01.245Z,61.8
2019-01-28T09:51:40.976Z,61.8
2019-01-28T09:52:31.132Z,61.8
2019-01-28T09:53:21.017Z,61.8
2019-01-28T09:54:11.250Z,61.7
2019-01-28T09:55:01.221Z,61.7
2019-01-28T09:55:51.155Z,61.7
2019-01-28T09:56:41.210Z,61.7
2019-01-28T09:57:31.034Z,61.7
2019-01-28T09:58:21.805Z,61.7
2019-01-28T09:59:11.869Z,61.6
2019-01-28T10:00:01.992Z,61.6
2019-01-28T10:00:52.059Z,61.6
2019-01-28T10:01:41.766Z,61.6
2019-01-28T10:02:31.352Z,61.6
2019-01-28T10:03:21.684Z,61.6
2019-01-28T10:04:11.929Z,61.6
2019-01-28T10:05:01.752Z,61.6
2019-01-28T10:07:29.746Z,61.5
2019-01-28T10:08:20.085Z,61.6
2019-01-28T10:09:14.071Z,61.5
2019-01-28T10:09:59.904Z,61.5
2019-01-28T10:10:50.252Z,61.5
2019-01-28T10:11:40.077Z,61.4
2019-01-28T10:12:30.348Z,61.4
2019-01-28T10:13:20.141Z,61.4
2019-01-28T10:14:10.198Z,61.4
2019-01-28T10:15:00.251Z,61.4
2019-01-28T10:15:50.379Z,61.4
2019-01-28T10:16:40.640Z,61.4
2019-01-28T10:17:30.695Z,61.4
2019-01-28T10:18:20.508Z,61.4
2019-01-28T10:19:10.526Z,61.4
2019-01-28T10:20:00.718Z,61.3
2019-01-28T10:20:50.125Z,61.3
2019-01-28T10:21:41.031Z,61.3
2019-01-28T10:22:30.486Z,61.3
2019-01-28T10:23:20.835Z,61.3
2019-01-28T10:24:11.163Z,61.3
2019-01-28T10:25:01.323Z,61.3
2019-01-28T10:25:50.450Z,61.3
2019-01-28T10:26:40.827Z,61.3
2019-01-28T10:27:31.104Z,61.3
2019-01-28T10:28:21.447Z,61.2
2019-01-28T10:29:10.948Z,61.2
2019-01-28T10:30:01.035Z,61.2
2019-01-28T10:30:51.067Z,61.2
2019-01-28T10:31:41.670Z,61.2
2019-01-28T10:32:39.315Z,61.2
2019-01-28T10:33:21.807Z,61.1
2019-01-28T10:34:11.587Z,61.1
2019-01-28T10:35:01.645Z,61.1
2019-01-28T10:35:51.127Z,61.1
2019-01-28T10:36:41.747Z,61.1
2019-01-28T10:37:32.064Z,61.1
2019-01-28T10:38:22.132Z,61.1
2019-01-28T10:39:11.629Z,61.1
2019-01-28T10:40:02.260Z,61.1
2019-01-28T10:40:51.764Z,61
2019-01-28T10:41:41.798Z,61.1
2019-01-28T10:42:32.404Z,61
2019-01-28T10:43:22.202Z,61
2019-01-28T10:44:14.237Z,61
2019-01-28T10:45:02.696Z,60.9
2019-01-28T10:45:52.376Z,61
2019-01-28T10:46:42.224Z,60.9
2019-01-28T10:47:32.244Z,60.9
2019-01-28T10:48:22.524Z,60.9
2019-01-28T10:49:12.343Z,60.9
2019-01-28T10:50:02.755Z,60.9
2019-01-28T10:50:52.994Z,60.9
2019-01-28T10:51:42.201Z,60.9
2019-01-28T10:52:32.836Z,60.9
2019-01-28T10:53:22.871Z,60.9
2019-01-28T10:54:12.941Z,60.8
2019-01-28T10:55:03.096Z,60.8
2019-01-28T10:55:52.771Z,60.8
2019-01-28T10:56:42.842Z,60.8
2019-01-28T10:57:33.173Z,60.8
2019-01-28T10:58:22.961Z,60.8
2019-01-28T10:59:13.327Z,60.8
2019-01-28T11:00:03.508Z,60.8
2019-01-28T11:00:53.413Z,60.8
2019-01-28T11:01:43.498Z,60.7
2019-01-28T11:02:33.215Z,60.8
2019-01-28T11:03:23.081Z,60.7
2019-01-28T11:04:13.140Z,60.7
2019-01-28T11:05:03.528Z,60.7
2019-01-28T11:05:53.206Z,60.7
2019-01-28T11:06:43.843Z,60.6
2019-01-28T11:07:34.135Z,60.6
2019-01-28T11:08:23.630Z,60.6
2019-01-28T11:09:13.695Z,60.6
2019-01-28T11:10:03.890Z,60.6
2019-01-28T11:10:53.550Z,60.6
2019-01-28T11:11:46.128Z,60.6
2019-01-28T11:12:34.855Z,60.6
2019-01-28T11:13:24.510Z,60.6
2019-01-28T11:14:14.617Z,60.6
2019-01-28T11:15:04.227Z,60.6
2019-01-28T11:15:54.632Z,60.5
2019-01-28T11:16:44.928Z,60.5
2019-01-28T11:17:34.582Z,60.5
2019-01-28T11:18:24.718Z,60.5
2019-01-28T11:19:13.909Z,60.5
2019-01-28T11:20:04.872Z,60.4
2019-01-28T11:20:54.877Z,60.4
2019-01-28T11:21:45.327Z,60.4
2019-01-28T11:22:34.368Z,60.4
2019-01-28T11:23:25.381Z,60.4
2019-01-28T11:24:15.248Z,60.4
2019-01-28T11:25:05.778Z,60.4
2019-01-28T11:25:55.269Z,60.4
2019-01-28T11:26:45.673Z,60.4
2019-01-28T11:27:35.924Z,60.3
2019-01-28T11:28:25.409Z,60.3
2019-01-28T11:29:15.571Z,60.3
2019-01-28T11:30:04.899Z,60.3
2019-01-28T11:30:55.655Z,60.3
2019-01-28T11:31:44.986Z,60.3
2019-01-28T11:32:35.582Z,60.3
2019-01-28T11:33:25.143Z,60.3
2019-01-28T11:34:15.781Z,60.3
2019-01-28T11:35:06.460Z,60.3
2019-01-28T11:35:55.725Z,60.3
2019-01-28T11:36:45.594Z,60.2
2019-01-28T11:37:36.445Z,60.2
2019-01-28T11:38:25.459Z,60.2
2019-01-28T11:39:15.584Z,60.2
2019-01-28T11:40:06.438Z,60.1
2019-01-28T11:40:56.827Z,60.1
2019-01-28T11:41:46.218Z,60.1
2019-01-28T11:42:36.371Z,60.1
2019-01-28T11:43:26.606Z,60.1
2019-01-28T11:44:16.392Z,60.1
2019-01-28T11:45:07.310Z,60.1
2019-01-28T11:45:56.522Z,60.1
2019-01-28T11:46:47.127Z,60.1
2019-01-28T11:47:36.999Z,60.1
2019-01-28T11:48:27.023Z,60.1